sensor_id;sensor_type;location;lat;lon;timestamp;temperature;humidity
12839;DHT22;6486;51.034;5.262;2024-03-08T00:02:16;19.30;40.00
12839;DHT22;6486;51.034;5.262;2024-03-08T00:04:42;19.20;39.90
12839;DHT22;6486;51.034;5.262;2024-03-08T00:07:08;19.20;39.90
12839;DHT22;6486;51.034;5.262;2024-03-08T00:09:33;19.20;39.90
12839;DHT22;6486;51.034;5.262;2024-03-08T00:11:59;19.30;40.00
12839;DHT22;6486;51.034;5.262;2024-03-08T00:14:25;19.30;39.90
12839;DHT22;6486;51.034;5.262;2024-03-08T00:16:51;19.30;39.90
12839;DHT22;6486;51.034;5.262;2024-03-08T00:19:18;19.30;39.90
12839;DHT22;6486;51.034;5.262;2024-03-08T00:21:44;19.30;39.90
12839;DHT22;6486;51.034;5.262;2024-03-08T00:24:10;19.30;40.00
12839;DHT22;6486;51.034;5.262;2024-03-08T00:26:36;19.30;39.90
12839;DHT22;6486;51.034;5.262;2024-03-08T00:29:01;19.30;39.90
12839;DHT22;6486;51.034;5.262;2024-03-08T00:31:28;19.30;39.90
12839;DHT22;6486;51.034;5.262;2024-03-08T00:33:56;19.30;39.90
12839;DHT22;6486;51.034;5.262;2024-03-08T00:36:22;19.30;39.90
12839;DHT22;6486;51.034;5.262;2024-03-08T00:38:48;19.30;39.80
12839;DHT22;6486;51.034;5.262;2024-03-08T00:41:14;19.30;39.80
12839;DHT22;6486;51.034;5.262;2024-03-08T00:43:41;19.40;39.70
12839;DHT22;6486;51.034;5.262;2024-03-08T00:46:06;19.30;39.80
12839;DHT22;6486;51.034;5.262;2024-03-08T00:48:33;19.30;39.80
12839;DHT22;6486;51.034;5.262;2024-03-08T00:50:58;19.30;39.80
12839;DHT22;6486;51.034;5.262;2024-03-08T00:53:24;19.30;39.80
12839;DHT22;6486;51.034;5.262;2024-03-08T00:55:50;19.30;39.80
12839;DHT22;6486;51.034;5.262;2024-03-08T00:58:15;19.30;39.80
12839;DHT22;6486;51.034;5.262;2024-03-08T01:00:41;19.30;39.80
12839;DHT22;6486;51.034;5.262;2024-03-08T01:03:07;19.30;39.80
12839;DHT22;6486;51.034;5.262;2024-03-08T01:05:33;19.30;39.80
12839;DHT22;6486;51.034;5.262;2024-03-08T01:08:00;19.30;39.80
12839;DHT22;6486;51.034;5.262;2024-03-08T01:10:28;19.30;39.80
12839;DHT22;6486;51.034;5.262;2024-03-08T01:12:54;19.30;39.80
12839;DHT22;6486;51.034;5.262;2024-03-08T01:15:23;19.30;39.80
12839;DHT22;6486;51.034;5.262;2024-03-08T01:17:49;19.30;39.80
12839;DHT22;6486;51.034;5.262;2024-03-08T01:20:15;19.30;39.80
12839;DHT22;6486;51.034;5.262;2024-03-08T01:22:41;19.20;39.70
12839;DHT22;6486;51.034;5.262;2024-03-08T01:25:07;19.30;39.80
12839;DHT22;6486;51.034;5.262;2024-03-08T01:27:34;19.30;39.80
12839;DHT22;6486;51.034;5.262;2024-03-08T01:30:00;19.30;39.70
12839;DHT22;6486;51.034;5.262;2024-03-08T01:32:26;19.30;39.80
12839;DHT22;6486;51.034;5.262;2024-03-08T01:34:52;19.30;39.70
12839;DHT22;6486;51.034;5.262;2024-03-08T01:37:17;19.30;39.70
12839;DHT22;6486;51.034;5.262;2024-03-08T01:39:43;19.30;39.70
12839;DHT22;6486;51.034;5.262;2024-03-08T01:42:09;19.30;39.70
12839;DHT22;6486;51.034;5.262;2024-03-08T01:44:38;19.30;39.70
12839;DHT22;6486;51.034;5.262;2024-03-08T01:47:05;19.30;39.70
12839;DHT22;6486;51.034;5.262;2024-03-08T01:49:31;19.30;39.60
12839;DHT22;6486;51.034;5.262;2024-03-08T01:51:57;19.30;39.60
12839;DHT22;6486;51.034;5.262;2024-03-08T01:54:23;19.30;39.60
12839;DHT22;6486;51.034;5.262;2024-03-08T01:56:52;19.40;39.70
12839;DHT22;6486;51.034;5.262;2024-03-08T01:59:18;19.30;39.60
12839;DHT22;6486;51.034;5.262;2024-03-08T02:01:44;19.30;39.60
12839;DHT22;6486;51.034;5.262;2024-03-08T02:04:10;19.30;39.60
12839;DHT22;6486;51.034;5.262;2024-03-08T02:06:37;19.30;39.60
12839;DHT22;6486;51.034;5.262;2024-03-08T02:09:04;19.30;39.60
12839;DHT22;6486;51.034;5.262;2024-03-08T02:11:34;19.30;39.60
12839;DHT22;6486;51.034;5.262;2024-03-08T02:14:01;19.30;39.60
12839;DHT22;6486;51.034;5.262;2024-03-08T02:16:27;19.30;39.60
12839;DHT22;6486;51.034;5.262;2024-03-08T02:18:53;19.30;39.60
12839;DHT22;6486;51.034;5.262;2024-03-08T02:21:19;19.30;39.60
12839;DHT22;6486;51.034;5.262;2024-03-08T02:23:46;19.30;39.50
12839;DHT22;6486;51.034;5.262;2024-03-08T02:26:12;19.30;39.50
12839;DHT22;6486;51.034;5.262;2024-03-08T02:28:37;19.30;39.50
12839;DHT22;6486;51.034;5.262;2024-03-08T02:31:04;19.30;39.60
12839;DHT22;6486;51.034;5.262;2024-03-08T02:33:33;19.30;39.60
12839;DHT22;6486;51.034;5.262;2024-03-08T02:35:59;19.30;39.50
12839;DHT22;6486;51.034;5.262;2024-03-08T02:38:26;19.30;39.50
12839;DHT22;6486;51.034;5.262;2024-03-08T02:40:53;19.30;39.50
12839;DHT22;6486;51.034;5.262;2024-03-08T02:43:20;19.30;39.50
12839;DHT22;6486;51.034;5.262;2024-03-08T02:45:47;19.40;39.50
12839;DHT22;6486;51.034;5.262;2024-03-08T02:48:14;19.40;39.50
12839;DHT22;6486;51.034;5.262;2024-03-08T02:50:40;19.30;39.50
12839;DHT22;6486;51.034;5.262;2024-03-08T02:53:08;19.40;39.50
12839;DHT22;6486;51.034;5.262;2024-03-08T02:55:35;19.40;39.50
12839;DHT22;6486;51.034;5.262;2024-03-08T02:58:03;19.40;39.50
12839;DHT22;6486;51.034;5.262;2024-03-08T03:00:29;19.40;39.50
12839;DHT22;6486;51.034;5.262;2024-03-08T03:02:59;19.40;39.40
12839;DHT22;6486;51.034;5.262;2024-03-08T03:05:25;19.40;39.40
12839;DHT22;6486;51.034;5.262;2024-03-08T03:07:51;19.40;39.40
12839;DHT22;6486;51.034;5.262;2024-03-08T03:10:17;19.40;39.40
12839;DHT22;6486;51.034;5.262;2024-03-08T03:12:43;19.40;39.40
12839;DHT22;6486;51.034;5.262;2024-03-08T03:15:10;19.40;39.40
12839;DHT22;6486;51.034;5.262;2024-03-08T03:17:37;19.40;39.40
12839;DHT22;6486;51.034;5.262;2024-03-08T03:20:05;19.40;39.40
12839;DHT22;6486;51.034;5.262;2024-03-08T03:22:36;19.40;39.40
12839;DHT22;6486;51.034;5.262;2024-03-08T03:25:03;19.40;39.40
12839;DHT22;6486;51.034;5.262;2024-03-08T03:27:29;19.40;39.40
12839;DHT22;6486;51.034;5.262;2024-03-08T03:29:56;19.30;39.30
12839;DHT22;6486;51.034;5.262;2024-03-08T03:32:23;19.30;39.30
12839;DHT22;6486;51.034;5.262;2024-03-08T03:34:49;19.30;39.30
12839;DHT22;6486;51.034;5.262;2024-03-08T03:37:18;19.40;39.30
12839;DHT22;6486;51.034;5.262;2024-03-08T03:39:45;19.30;39.30
12839;DHT22;6486;51.034;5.262;2024-03-08T03:42:19;19.40;39.30
12839;DHT22;6486;51.034;5.262;2024-03-08T03:44:48;19.40;39.30
12839;DHT22;6486;51.034;5.262;2024-03-08T03:47:17;19.40;39.30
12839;DHT22;6486;51.034;5.262;2024-03-08T03:49:43;19.40;39.30
12839;DHT22;6486;51.034;5.262;2024-03-08T03:52:09;19.40;39.30
12839;DHT22;6486;51.034;5.262;2024-03-08T03:54:35;19.40;39.30
12839;DHT22;6486;51.034;5.262;2024-03-08T03:57:01;19.40;39.20
12839;DHT22;6486;51.034;5.262;2024-03-08T03:59:28;19.40;39.20
12839;DHT22;6486;51.034;5.262;2024-03-08T04:01:54;19.40;39.20
12839;DHT22;6486;51.034;5.262;2024-03-08T04:04:21;19.40;39.20
12839;DHT22;6486;51.034;5.262;2024-03-08T04:06:46;19.40;39.20
12839;DHT22;6486;51.034;5.262;2024-03-08T04:09:13;19.40;39.20
12839;DHT22;6486;51.034;5.262;2024-03-08T04:11:39;19.40;39.20
12839;DHT22;6486;51.034;5.262;2024-03-08T04:14:05;19.40;39.20
12839;DHT22;6486;51.034;5.262;2024-03-08T04:16:31;19.40;39.20
12839;DHT22;6486;51.034;5.262;2024-03-08T04:18:58;19.40;39.20
12839;DHT22;6486;51.034;5.262;2024-03-08T04:21:23;19.40;39.20
12839;DHT22;6486;51.034;5.262;2024-03-08T04:23:49;19.40;39.10
12839;DHT22;6486;51.034;5.262;2024-03-08T04:26:15;19.40;39.10
12839;DHT22;6486;51.034;5.262;2024-03-08T04:28:41;19.40;39.10
12839;DHT22;6486;51.034;5.262;2024-03-08T04:31:07;19.40;39.20
12839;DHT22;6486;51.034;5.262;2024-03-08T04:33:32;19.40;39.10
12839;DHT22;6486;51.034;5.262;2024-03-08T04:36:01;19.40;39.20
12839;DHT22;6486;51.034;5.262;2024-03-08T04:38:26;19.40;39.10
12839;DHT22;6486;51.034;5.262;2024-03-08T04:40:52;19.40;39.10
12839;DHT22;6486;51.034;5.262;2024-03-08T04:43:18;19.40;39.10
12839;DHT22;6486;51.034;5.262;2024-03-08T04:45:45;19.40;39.10
12839;DHT22;6486;51.034;5.262;2024-03-08T04:48:11;19.30;39.00
12839;DHT22;6486;51.034;5.262;2024-03-08T04:50:37;19.40;39.10
12839;DHT22;6486;51.034;5.262;2024-03-08T04:53:03;19.40;39.10
12839;DHT22;6486;51.034;5.262;2024-03-08T04:55:31;19.40;39.10
12839;DHT22;6486;51.034;5.262;2024-03-08T04:57:57;19.40;39.00
12839;DHT22;6486;51.034;5.262;2024-03-08T05:00:23;19.40;39.10
12839;DHT22;6486;51.034;5.262;2024-03-08T05:02:48;19.40;39.00
12839;DHT22;6486;51.034;5.262;2024-03-08T05:05:14;19.40;39.00
12839;DHT22;6486;51.034;5.262;2024-03-08T05:07:40;19.40;39.00
12839;DHT22;6486;51.034;5.262;2024-03-08T05:10:07;19.40;39.00
12839;DHT22;6486;51.034;5.262;2024-03-08T05:12:36;19.20;38.80
12839;DHT22;6486;51.034;5.262;2024-03-08T05:15:01;19.40;38.90
12839;DHT22;6486;51.034;5.262;2024-03-08T05:17:28;19.40;39.00
12839;DHT22;6486;51.034;5.262;2024-03-08T05:19:55;19.40;38.90
12839;DHT22;6486;51.034;5.262;2024-03-08T05:22:21;19.40;38.90
12839;DHT22;6486;51.034;5.262;2024-03-08T05:24:47;19.50;39.00
12839;DHT22;6486;51.034;5.262;2024-03-08T05:27:12;19.40;38.90
12839;DHT22;6486;51.034;5.262;2024-03-08T05:29:38;19.40;38.90
12839;DHT22;6486;51.034;5.262;2024-03-08T05:32:04;19.40;38.90
12839;DHT22;6486;51.034;5.262;2024-03-08T05:34:30;19.40;38.90
12839;DHT22;6486;51.034;5.262;2024-03-08T05:36:56;19.40;38.90
12839;DHT22;6486;51.034;5.262;2024-03-08T05:39:23;19.40;38.90
12839;DHT22;6486;51.034;5.262;2024-03-08T05:41:49;19.40;38.90
12839;DHT22;6486;51.034;5.262;2024-03-08T05:44:16;19.40;38.90
12839;DHT22;6486;51.034;5.262;2024-03-08T05:46:46;19.40;38.90
12839;DHT22;6486;51.034;5.262;2024-03-08T05:49:12;19.40;38.90
12839;DHT22;6486;51.034;5.262;2024-03-08T05:51:39;19.40;38.90
12839;DHT22;6486;51.034;5.262;2024-03-08T05:54:09;19.40;38.90
12839;DHT22;6486;51.034;5.262;2024-03-08T05:56:38;19.40;38.90
12839;DHT22;6486;51.034;5.262;2024-03-08T05:59:06;19.40;38.90
12839;DHT22;6486;51.034;5.262;2024-03-08T06:01:31;19.40;38.90
12839;DHT22;6486;51.034;5.262;2024-03-08T06:03:57;19.40;38.80
12839;DHT22;6486;51.034;5.262;2024-03-08T06:06:24;19.40;38.80
12839;DHT22;6486;51.034;5.262;2024-03-08T06:08:50;19.40;38.90
12839;DHT22;6486;51.034;5.262;2024-03-08T06:11:17;19.40;38.80
12839;DHT22;6486;51.034;5.262;2024-03-08T06:13:43;19.40;38.80
12839;DHT22;6486;51.034;5.262;2024-03-08T06:16:09;19.40;38.80
12839;DHT22;6486;51.034;5.262;2024-03-08T06:18:35;19.40;38.70
12839;DHT22;6486;51.034;5.262;2024-03-08T06:21:05;19.40;38.80
12839;DHT22;6486;51.034;5.262;2024-03-08T06:23:33;19.40;38.80
12839;DHT22;6486;51.034;5.262;2024-03-08T06:25:59;19.40;38.70
12839;DHT22;6486;51.034;5.262;2024-03-08T06:28:24;19.40;38.70
12839;DHT22;6486;51.034;5.262;2024-03-08T06:30:50;19.40;38.70
12839;DHT22;6486;51.034;5.262;2024-03-08T06:33:17;19.40;38.70
12839;DHT22;6486;51.034;5.262;2024-03-08T06:35:43;19.40;38.70
12839;DHT22;6486;51.034;5.262;2024-03-08T06:38:09;19.50;38.80
12839;DHT22;6486;51.034;5.262;2024-03-08T06:40:34;19.40;38.70
12839;DHT22;6486;51.034;5.262;2024-03-08T06:43:00;19.40;38.70
12839;DHT22;6486;51.034;5.262;2024-03-08T06:45:26;19.40;38.70
12839;DHT22;6486;51.034;5.262;2024-03-08T06:47:51;19.40;38.70
12839;DHT22;6486;51.034;5.262;2024-03-08T06:50:17;19.40;38.70
12839;DHT22;6486;51.034;5.262;2024-03-08T06:52:43;19.40;39.30
12839;DHT22;6486;51.034;5.262;2024-03-08T06:55:10;19.40;38.70
12839;DHT22;6486;51.034;5.262;2024-03-08T06:57:41;19.40;38.70
12839;DHT22;6486;51.034;5.262;2024-03-08T07:00:08;19.40;38.70
12839;DHT22;6486;51.034;5.262;2024-03-08T07:02:43;19.40;38.70
12839;DHT22;6486;51.034;5.262;2024-03-08T07:05:12;19.40;39.30
12839;DHT22;6486;51.034;5.262;2024-03-08T07:07:38;19.40;38.60
12839;DHT22;6486;51.034;5.262;2024-03-08T07:10:06;19.40;38.60
12839;DHT22;6486;51.034;5.262;2024-03-08T07:12:37;19.40;38.60
12839;DHT22;6486;51.034;5.262;2024-03-08T07:15:04;19.50;38.70
12839;DHT22;6486;51.034;5.262;2024-03-08T07:17:30;19.50;38.70
12839;DHT22;6486;51.034;5.262;2024-03-08T07:19:56;19.50;38.70
12839;DHT22;6486;51.034;5.262;2024-03-08T07:22:24;19.40;38.60
12839;DHT22;6486;51.034;5.262;2024-03-08T07:24:50;19.50;38.60
12839;DHT22;6486;51.034;5.262;2024-03-08T07:27:40;19.50;38.70
12839;DHT22;6486;51.034;5.262;2024-03-08T07:30:06;19.50;38.60
12839;DHT22;6486;51.034;5.262;2024-03-08T07:32:35;19.50;38.60
12839;DHT22;6486;51.034;5.262;2024-03-08T07:35:01;19.50;38.60
12839;DHT22;6486;51.034;5.262;2024-03-08T07:37:27;19.50;38.60
12839;DHT22;6486;51.034;5.262;2024-03-08T07:39:53;19.50;38.60
12839;DHT22;6486;51.034;5.262;2024-03-08T07:42:18;19.50;38.60
12839;DHT22;6486;51.034;5.262;2024-03-08T07:44:44;19.50;38.60
12839;DHT22;6486;51.034;5.262;2024-03-08T07:47:11;19.50;38.60
12839;DHT22;6486;51.034;5.262;2024-03-08T07:49:37;19.50;38.60
12839;DHT22;6486;51.034;5.262;2024-03-08T07:52:04;19.50;38.60
12839;DHT22;6486;51.034;5.262;2024-03-08T07:54:30;19.50;38.60
12839;DHT22;6486;51.034;5.262;2024-03-08T07:56:56;19.50;38.60
12839;DHT22;6486;51.034;5.262;2024-03-08T07:59:22;19.50;38.60
12839;DHT22;6486;51.034;5.262;2024-03-08T08:01:48;19.30;38.10
12839;DHT22;6486;51.034;5.262;2024-03-08T08:04:13;19.50;38.60
12839;DHT22;6486;51.034;5.262;2024-03-08T08:06:43;19.50;38.60
12839;DHT22;6486;51.034;5.262;2024-03-08T08:09:09;19.50;38.60
12839;DHT22;6486;51.034;5.262;2024-03-08T08:11:41;19.50;38.70
12839;DHT22;6486;51.034;5.262;2024-03-08T08:14:09;19.50;38.60
12839;DHT22;6486;51.034;5.262;2024-03-08T08:16:35;19.50;38.70
12839;DHT22;6486;51.034;5.262;2024-03-08T08:19:03;19.50;38.70
12839;DHT22;6486;51.034;5.262;2024-03-08T08:21:36;19.50;38.70
12839;DHT22;6486;51.034;5.262;2024-03-08T08:24:03;19.50;38.70
12839;DHT22;6486;51.034;5.262;2024-03-08T08:26:29;19.50;38.70
12839;DHT22;6486;51.034;5.262;2024-03-08T08:28:55;19.50;38.70
12839;DHT22;6486;51.034;5.262;2024-03-08T08:31:20;19.40;38.60
12839;DHT22;6486;51.034;5.262;2024-03-08T08:33:46;19.50;38.70
12839;DHT22;6486;51.034;5.262;2024-03-08T08:36:13;19.50;38.70
12839;DHT22;6486;51.034;5.262;2024-03-08T08:38:39;19.50;38.70
12839;DHT22;6486;51.034;5.262;2024-03-08T08:41:05;19.50;39.30
12839;DHT22;6486;51.034;5.262;2024-03-08T08:43:31;19.50;38.70
12839;DHT22;6486;51.034;5.262;2024-03-08T08:45:59;19.50;38.60
12839;DHT22;6486;51.034;5.262;2024-03-08T08:48:24;19.50;38.60
12839;DHT22;6486;51.034;5.262;2024-03-08T08:50:50;19.40;38.50
12839;DHT22;6486;51.034;5.262;2024-03-08T08:53:18;19.50;38.60
12839;DHT22;6486;51.034;5.262;2024-03-08T08:55:44;19.50;38.60
12839;DHT22;6486;51.034;5.262;2024-03-08T08:58:11;19.50;38.60
12839;DHT22;6486;51.034;5.262;2024-03-08T09:00:38;19.50;38.60
12839;DHT22;6486;51.034;5.262;2024-03-08T09:03:04;19.50;38.60
12839;DHT22;6486;51.034;5.262;2024-03-08T09:05:32;19.50;38.60
12839;DHT22;6486;51.034;5.262;2024-03-08T09:07:57;19.50;38.70
12839;DHT22;6486;51.034;5.262;2024-03-08T09:10:24;19.40;38.50
12839;DHT22;6486;51.034;5.262;2024-03-08T09:12:50;19.40;38.60
12839;DHT22;6486;51.034;5.262;2024-03-08T09:15:15;19.40;38.60
12839;DHT22;6486;51.034;5.262;2024-03-08T09:17:43;19.40;38.60
12839;DHT22;6486;51.034;5.262;2024-03-08T09:20:10;19.50;38.70
12839;DHT22;6486;51.034;5.262;2024-03-08T09:22:40;19.40;38.40
12839;DHT22;6486;51.034;5.262;2024-03-08T09:25:06;19.40;38.40
12839;DHT22;6486;51.034;5.262;2024-03-08T09:27:33;19.40;38.40
12839;DHT22;6486;51.034;5.262;2024-03-08T09:29:59;19.40;38.40
12839;DHT22;6486;51.034;5.262;2024-03-08T09:32:25;19.40;38.40
12839;DHT22;6486;51.034;5.262;2024-03-08T09:34:51;19.40;38.40
12839;DHT22;6486;51.034;5.262;2024-03-08T09:37:17;19.40;38.40
12839;DHT22;6486;51.034;5.262;2024-03-08T09:39:44;19.40;38.50
12839;DHT22;6486;51.034;5.262;2024-03-08T09:42:10;19.40;38.50
12839;DHT22;6486;51.034;5.262;2024-03-08T09:44:48;19.40;38.50
12839;DHT22;6486;51.034;5.262;2024-03-08T09:47:14;19.40;38.60
12839;DHT22;6486;51.034;5.262;2024-03-08T09:49:41;19.40;38.60
12839;DHT22;6486;51.034;5.262;2024-03-08T09:52:07;19.40;38.60
12839;DHT22;6486;51.034;5.262;2024-03-08T09:54:33;19.40;38.50
12839;DHT22;6486;51.034;5.262;2024-03-08T09:56:59;19.40;38.60
12839;DHT22;6486;51.034;5.262;2024-03-08T09:59:25;19.40;38.60
12839;DHT22;6486;51.034;5.262;2024-03-08T10:01:51;19.40;38.60
12839;DHT22;6486;51.034;5.262;2024-03-08T10:04:24;19.40;38.60
12839;DHT22;6486;51.034;5.262;2024-03-08T10:06:51;19.40;38.60
12839;DHT22;6486;51.034;5.262;2024-03-08T10:09:17;19.40;38.60
12839;DHT22;6486;51.034;5.262;2024-03-08T10:11:45;19.40;38.60
12839;DHT22;6486;51.034;5.262;2024-03-08T10:14:11;19.40;38.60
12839;DHT22;6486;51.034;5.262;2024-03-08T10:16:40;19.40;38.60
12839;DHT22;6486;51.034;5.262;2024-03-08T10:19:06;19.40;38.60
12839;DHT22;6486;51.034;5.262;2024-03-08T10:21:32;19.40;38.60
12839;DHT22;6486;51.034;5.262;2024-03-08T10:23:58;19.40;38.60
12839;DHT22;6486;51.034;5.262;2024-03-08T10:26:25;19.40;38.60
12839;DHT22;6486;51.034;5.262;2024-03-08T10:28:52;19.40;38.60
12839;DHT22;6486;51.034;5.262;2024-03-08T10:31:20;19.40;38.60
12839;DHT22;6486;51.034;5.262;2024-03-08T10:33:46;19.40;38.60
12839;DHT22;6486;51.034;5.262;2024-03-08T10:36:14;19.40;38.70
12839;DHT22;6486;51.034;5.262;2024-03-08T10:38:41;19.40;38.70
12839;DHT22;6486;51.034;5.262;2024-03-08T10:41:08;19.40;38.70
12839;DHT22;6486;51.034;5.262;2024-03-08T10:52:11;19.40;38.70
12839;DHT22;6486;51.034;5.262;2024-03-08T10:54:39;19.40;38.70
12839;DHT22;6486;51.034;5.262;2024-03-08T10:57:06;19.40;38.70
12839;DHT22;6486;51.034;5.262;2024-03-08T10:59:34;19.40;38.80
12839;DHT22;6486;51.034;5.262;2024-03-08T11:02:00;19.50;38.80
12839;DHT22;6486;51.034;5.262;2024-03-08T11:04:26;19.50;38.80
12839;DHT22;6486;51.034;5.262;2024-03-08T11:07:03;19.50;38.80
12839;DHT22;6486;51.034;5.262;2024-03-08T11:12:19;19.50;38.80
12839;DHT22;6486;51.034;5.262;2024-03-08T11:14:49;19.50;38.80
12839;DHT22;6486;51.034;5.262;2024-03-08T11:19:58;19.50;38.90
12839;DHT22;6486;51.034;5.262;2024-03-08T11:22:32;19.50;38.80
12839;DHT22;6486;51.034;5.262;2024-03-08T11:25:01;19.50;38.90
12839;DHT22;6486;51.034;5.262;2024-03-08T11:27:30;19.50;38.80
12839;DHT22;6486;51.034;5.262;2024-03-08T11:30:01;19.50;38.90
12839;DHT22;6486;51.034;5.262;2024-03-08T11:32:35;19.50;38.80
12839;DHT22;6486;51.034;5.262;2024-03-08T11:35:06;19.50;38.80
12839;DHT22;6486;51.034;5.262;2024-03-08T11:37:34;19.50;38.80
12839;DHT22;6486;51.034;5.262;2024-03-08T11:40:12;19.50;38.80
12839;DHT22;6486;51.034;5.262;2024-03-08T11:42:40;19.50;38.80
12839;DHT22;6486;51.034;5.262;2024-03-08T11:45:10;19.50;38.80
12839;DHT22;6486;51.034;5.262;2024-03-08T11:47:37;19.50;38.70
12839;DHT22;6486;51.034;5.262;2024-03-08T11:50:06;19.50;38.70
12839;DHT22;6486;51.034;5.262;2024-03-08T11:52:36;19.50;38.80
12839;DHT22;6486;51.034;5.262;2024-03-08T11:55:03;19.50;38.70
12839;DHT22;6486;51.034;5.262;2024-03-08T11:57:30;19.50;38.70
12839;DHT22;6486;51.034;5.262;2024-03-08T11:59:58;19.50;38.70
12839;DHT22;6486;51.034;5.262;2024-03-08T12:02:32;19.50;38.80
12839;DHT22;6486;51.034;5.262;2024-03-08T12:04:59;19.50;38.70
12839;DHT22;6486;51.034;5.262;2024-03-08T12:07:26;19.50;38.80
12839;DHT22;6486;51.034;5.262;2024-03-08T12:10:18;19.50;38.70
12839;DHT22;6486;51.034;5.262;2024-03-08T12:12:49;19.50;38.80
12839;DHT22;6486;51.034;5.262;2024-03-08T12:15:17;19.50;38.80
12839;DHT22;6486;51.034;5.262;2024-03-08T12:17:44;19.50;38.80
12839;DHT22;6486;51.034;5.262;2024-03-08T12:20:24;19.50;38.80
12839;DHT22;6486;51.034;5.262;2024-03-08T12:22:55;19.50;38.80
12839;DHT22;6486;51.034;5.262;2024-03-08T12:25:30;19.50;38.70
12839;DHT22;6486;51.034;5.262;2024-03-08T12:28:09;19.50;38.80
12839;DHT22;6486;51.034;5.262;2024-03-08T12:30:51;19.50;38.80
12839;DHT22;6486;51.034;5.262;2024-03-08T12:33:21;19.50;38.90
12839;DHT22;6486;51.034;5.262;2024-03-08T12:35:55;19.60;38.70
12839;DHT22;6486;51.034;5.262;2024-03-08T12:38:24;19.50;38.70
12839;DHT22;6486;51.034;5.262;2024-03-08T12:40:58;19.50;38.90
12839;DHT22;6486;51.034;5.262;2024-03-08T12:43:25;19.50;38.90
12839;DHT22;6486;51.034;5.262;2024-03-08T12:45:51;19.50;38.60
12839;DHT22;6486;51.034;5.262;2024-03-08T12:48:18;19.50;38.80
12839;DHT22;6486;51.034;5.262;2024-03-08T12:50:46;19.50;38.80
12839;DHT22;6486;51.034;5.262;2024-03-08T12:53:13;19.50;38.80
12839;DHT22;6486;51.034;5.262;2024-03-08T12:55:39;19.50;38.80
12839;DHT22;6486;51.034;5.262;2024-03-08T12:58:06;19.50;38.80
12839;DHT22;6486;51.034;5.262;2024-03-08T13:00:33;19.50;38.80
12839;DHT22;6486;51.034;5.262;2024-03-08T13:03:02;19.50;38.80
12839;DHT22;6486;51.034;5.262;2024-03-08T13:05:28;19.50;38.80
12839;DHT22;6486;51.034;5.262;2024-03-08T13:07:54;19.50;38.80
12839;DHT22;6486;51.034;5.262;2024-03-08T13:10:20;19.50;38.80
12839;DHT22;6486;51.034;5.262;2024-03-08T13:12:46;19.50;39.40
12839;DHT22;6486;51.034;5.262;2024-03-08T13:15:12;19.50;38.80
12839;DHT22;6486;51.034;5.262;2024-03-08T13:17:47;19.50;38.80
12839;DHT22;6486;51.034;5.262;2024-03-08T13:20:13;19.50;38.80
12839;DHT22;6486;51.034;5.262;2024-03-08T13:22:44;19.50;38.80
12839;DHT22;6486;51.034;5.262;2024-03-08T13:25:10;19.50;38.80
12839;DHT22;6486;51.034;5.262;2024-03-08T13:27:42;19.50;38.80
12839;DHT22;6486;51.034;5.262;2024-03-08T13:30:11;19.50;38.80
12839;DHT22;6486;51.034;5.262;2024-03-08T13:32:42;19.60;38.90
12839;DHT22;6486;51.034;5.262;2024-03-08T13:35:11;19.50;38.90
12839;DHT22;6486;51.034;5.262;2024-03-08T13:37:41;19.50;38.80
12839;DHT22;6486;51.034;5.262;2024-03-08T13:40:08;19.50;38.80
12839;DHT22;6486;51.034;5.262;2024-03-08T13:42:41;19.50;38.80
12839;DHT22;6486;51.034;5.262;2024-03-08T13:45:09;19.50;38.80
12839;DHT22;6486;51.034;5.262;2024-03-08T13:47:38;19.50;38.80
12839;DHT22;6486;51.034;5.262;2024-03-08T13:50:08;19.50;38.80
12839;DHT22;6486;51.034;5.262;2024-03-08T13:52:38;19.50;38.90
12839;DHT22;6486;51.034;5.262;2024-03-08T13:55:04;19.50;38.90
12839;DHT22;6486;51.034;5.262;2024-03-08T13:57:31;19.50;38.90
12839;DHT22;6486;51.034;5.262;2024-03-08T13:59:58;19.50;38.90
12839;DHT22;6486;51.034;5.262;2024-03-08T14:02:23;19.50;38.90
12839;DHT22;6486;51.034;5.262;2024-03-08T14:04:53;19.50;38.90
12839;DHT22;6486;51.034;5.262;2024-03-08T14:07:23;19.50;38.90
12839;DHT22;6486;51.034;5.262;2024-03-08T14:09:51;19.50;38.90
12839;DHT22;6486;51.034;5.262;2024-03-08T14:12:18;19.50;38.90
12839;DHT22;6486;51.034;5.262;2024-03-08T14:14:45;19.50;38.90
12839;DHT22;6486;51.034;5.262;2024-03-08T14:17:11;19.50;38.90
12839;DHT22;6486;51.034;5.262;2024-03-08T14:19:42;19.50;38.90
12839;DHT22;6486;51.034;5.262;2024-03-08T14:22:08;19.50;38.90
12839;DHT22;6486;51.034;5.262;2024-03-08T14:24:37;19.50;38.90
12839;DHT22;6486;51.034;5.262;2024-03-08T14:27:03;19.50;38.90
12839;DHT22;6486;51.034;5.262;2024-03-08T14:29:30;19.50;39.00
12839;DHT22;6486;51.034;5.262;2024-03-08T14:31:58;19.50;39.00
12839;DHT22;6486;51.034;5.262;2024-03-08T14:34:27;19.50;39.00
12839;DHT22;6486;51.034;5.262;2024-03-08T14:36:55;19.50;39.00
12839;DHT22;6486;51.034;5.262;2024-03-08T14:39:21;19.50;39.00
12839;DHT22;6486;51.034;5.262;2024-03-08T14:41:50;19.50;39.00
12839;DHT22;6486;51.034;5.262;2024-03-08T14:44:19;19.50;39.00
12839;DHT22;6486;51.034;5.262;2024-03-08T14:46:45;19.50;39.00
12839;DHT22;6486;51.034;5.262;2024-03-08T14:49:11;19.50;39.00
12839;DHT22;6486;51.034;5.262;2024-03-08T14:51:37;19.50;39.00
12839;DHT22;6486;51.034;5.262;2024-03-08T14:54:03;19.50;39.00
12839;DHT22;6486;51.034;5.262;2024-03-08T14:56:32;19.50;39.00
12839;DHT22;6486;51.034;5.262;2024-03-08T14:58:58;19.50;39.00
12839;DHT22;6486;51.034;5.262;2024-03-08T15:01:25;19.50;39.00
12839;DHT22;6486;51.034;5.262;2024-03-08T15:03:55;19.50;39.00
12839;DHT22;6486;51.034;5.262;2024-03-08T15:06:21;19.50;39.00
12839;DHT22;6486;51.034;5.262;2024-03-08T15:08:48;19.50;39.00
12839;DHT22;6486;51.034;5.262;2024-03-08T15:11:13;19.50;39.00
12839;DHT22;6486;51.034;5.262;2024-03-08T15:13:47;19.50;39.00
12839;DHT22;6486;51.034;5.262;2024-03-08T15:16:17;19.50;39.00
12839;DHT22;6486;51.034;5.262;2024-03-08T15:18:44;19.50;39.00
12839;DHT22;6486;51.034;5.262;2024-03-08T15:21:14;19.50;39.00
12839;DHT22;6486;51.034;5.262;2024-03-08T15:23:46;19.50;39.00
12839;DHT22;6486;51.034;5.262;2024-03-08T15:26:19;19.50;39.00
12839;DHT22;6486;51.034;5.262;2024-03-08T15:28:45;19.50;39.00
12839;DHT22;6486;51.034;5.262;2024-03-08T15:31:12;19.40;38.90
12839;DHT22;6486;51.034;5.262;2024-03-08T15:33:39;19.50;39.00
12839;DHT22;6486;51.034;5.262;2024-03-08T15:36:17;19.50;39.00
12839;DHT22;6486;51.034;5.262;2024-03-08T15:38:43;19.50;39.00
12839;DHT22;6486;51.034;5.262;2024-03-08T15:41:09;19.50;39.00
12839;DHT22;6486;51.034;5.262;2024-03-08T15:43:39;19.40;38.90
12839;DHT22;6486;51.034;5.262;2024-03-08T15:46:05;19.50;39.10
12839;DHT22;6486;51.034;5.262;2024-03-08T15:48:35;19.50;39.10
12839;DHT22;6486;51.034;5.262;2024-03-08T15:51:01;19.50;39.10
12839;DHT22;6486;51.034;5.262;2024-03-08T15:53:34;19.40;39.00
12839;DHT22;6486;51.034;5.262;2024-03-08T15:56:01;19.50;39.10
12839;DHT22;6486;51.034;5.262;2024-03-08T15:58:28;19.50;39.10
12839;DHT22;6486;51.034;5.262;2024-03-08T16:00:56;19.50;39.10